createdAt,value
2023-02-09T02:21:09.896Z,102426.11
2023-02-09T02:23:48.603Z,102422.70
2023-02-09T02:26:55.580Z,102422.91
2023-02-09T02:29:48.633Z,102426.19
2023-02-09T02:32:31.749Z,102426.48
2023-02-09T02:35:19.904Z,102428.30
2023-02-09T02:38:00.438Z,102425.76
2023-02-09T02:40:49.926Z,102423.75
2023-02-09T02:43:25.650Z,102420.15
2023-02-09T02:46:04.896Z,102415.80
2023-02-09T02:48:38.486Z,102420.19
2023-02-09T02:51:10.599Z,102416.80
2023-02-09T02:53:41.699Z,102418.74
2023-02-09T02:56:15.744Z,102421.05
2023-02-09T02:58:44.959Z,102422.02
2023-02-09T03:01:15.101Z,102417.85
2023-02-09T03:03:43.977Z,102414.59
2023-02-09T03:06:12.361Z,102415.55
2023-02-09T03:08:57.073Z,102409.41
2023-02-09T03:11:30.787Z,102406.66
2023-02-09T03:14:14.204Z,102406.40
2023-02-09T03:17:07.049Z,102407.37
2023-02-09T03:20:01.649Z,102408.92
2023-02-09T03:22:37.294Z,102407.23
2023-02-09T03:25:14.253Z,102411.98
2023-02-09T03:27:48.216Z,102408.34
2023-02-09T03:30:16.797Z,102410.37
2023-02-09T03:32:46.088Z,102407.02
2023-02-09T03:35:16.420Z,102407.88
2023-02-09T03:37:44.766Z,102411.02
2023-02-09T03:40:13.689Z,102412.63
2023-02-09T03:42:42.057Z,102410.34
2023-02-09T03:45:10.224Z,102411.66
2023-02-09T03:47:38.501Z,102412.83
2023-02-09T03:50:07.710Z,102411.27
2023-02-09T03:52:35.983Z,102405.45
2023-02-09T03:55:05.432Z,102401.80
2023-02-09T03:57:33.626Z,102408.88
2023-02-09T04:00:03.631Z,102408.86
2023-02-09T04:02:40.423Z,102408.25
2023-02-09T04:05:09.067Z,102406.23
2023-02-09T04:07:41.879Z,102401.46
2023-02-09T04:10:11.139Z,102400.04
2023-02-09T04:12:39.533Z,102399.64
2023-02-09T04:15:09.763Z,102404.54
2023-02-09T04:17:38.872Z,102403.91
2023-02-09T04:20:07.763Z,102398.73
2023-02-09T04:22:36.823Z,102397.39
2023-02-09T04:25:07.575Z,102395.05
2023-02-09T04:27:35.938Z,102398.02
2023-02-09T04:30:04.502Z,102401.83
2023-02-09T04:32:32.998Z,102396.62
2023-02-09T04:35:02.197Z,102401.71
2023-02-09T04:37:30.630Z,102401.17
2023-02-09T04:39:58.659Z,102403.63
2023-02-09T04:42:26.786Z,102408.20
2023-02-09T04:44:55.215Z,102409.46
2023-02-09T04:47:23.339Z,102404.45
2023-02-09T04:49:51.623Z,102403.20
2023-02-09T04:52:19.845Z,102401.80
2023-02-09T04:54:47.949Z,102408.18
2023-02-09T04:57:34.885Z,102407.65
2023-02-09T05:00:03.316Z,102407.81
2023-02-09T06:57:04.591Z,102369.67
2023-02-09T06:59:32.716Z,102374.66
2023-02-09T07:02:00.812Z,102375.73
2023-02-09T07:04:29.084Z,102378.46
2023-02-09T07:06:57.883Z,102377.20
2023-02-09T07:09:26.264Z,102376.00
2023-02-09T07:11:55.427Z,102372.00
2023-02-09T07:14:23.583Z,102371.44
2023-02-09T07:16:51.822Z,102369.55
2023-02-09T07:19:21.237Z,102369.17
2023-02-09T07:21:49.570Z,102370.73
2023-02-09T07:24:18.404Z,102375.71
2023-02-09T07:26:46.672Z,102377.30
2023-02-09T07:29:14.761Z,102377.65
2023-02-09T07:31:43.184Z,102370.44
2023-02-09T07:34:11.636Z,102378.59
2023-02-09T07:36:40.099Z,102378.56
2023-02-09T07:39:08.704Z,102370.61
2023-02-09T07:41:37.188Z,102365.58
2023-02-09T07:44:05.671Z,102368.35
2023-02-09T07:46:34.134Z,102370.61
2023-02-09T07:49:02.350Z,102364.92
2023-02-09T07:51:32.858Z,102369.60
2023-02-09T07:54:02.909Z,102368.84
2023-02-09T07:56:31.379Z,102374.52
2023-02-09T07:58:59.960Z,102378.91
2023-02-09T08:01:28.590Z,102375.30
2023-02-09T08:03:57.388Z,102367.51
2023-02-09T08:06:43.141Z,102371.49
2023-02-09T08:09:14.303Z,102368.35
2023-02-09T08:11:45.808Z,102366.81
2023-02-09T08:14:18.263Z,102361.59
2023-02-09T08:16:46.483Z,102355.39
2023-02-09T08:19:19.519Z,102349.86
2023-02-09T08:21:48.438Z,102354.08
2023-02-09T08:24:17.567Z,102352.54
2023-02-09T08:26:45.842Z,102351.75
2023-02-09T08:29:14.151Z,102344.95
2023-02-09T08:31:44.953Z,102345.12
2023-02-09T08:34:18.054Z,102343.06
2023-02-09T08:36:46.398Z,102341.67
2023-02-09T08:39:14.720Z,102339.64
2023-02-09T08:41:45.172Z,102343.32
2023-02-09T08:44:14.498Z,102346.73
2023-02-09T08:46:43.313Z,102345.81
2023-02-09T08:49:11.742Z,102346.39
2023-02-09T08:51:40.226Z,102345.13
2023-02-09T08:54:09.016Z,102339.21
2023-02-09T08:56:38.426Z,102337.67
2023-02-09T08:59:07.124Z,102333.78
2023-02-09T09:01:35.353Z,102335.96
2023-02-09T09:04:04.240Z,102330.94
2023-02-09T09:06:32.619Z,102327.11
2023-02-09T09:09:01.346Z,102322.88
2023-02-09T09:11:29.958Z,102324.73
2023-02-09T09:13:58.440Z,102327.39
2023-02-09T09:16:26.774Z,102326.09
2023-02-09T09:18:55.831Z,102322.46
2023-02-09T09:21:24.104Z,102318.31
2023-02-09T09:23:52.484Z,102316.52
2023-02-09T09:26:21.498Z,102315.59
2023-02-09T09:28:51.145Z,102312.21
2023-02-09T09:31:19.475Z,102310.40
2023-02-09T09:33:48.031Z,102306.40
2023-02-09T09:36:16.658Z,102301.77
2023-02-09T09:38:45.366Z,102302.55
2023-02-09T09:41:23.027Z,102298.73
2023-02-09T09:43:51.187Z,102289.21
2023-02-09T09:46:21.447Z,102285.39
2023-02-09T09:48:54.769Z,102278.59
2023-02-09T09:51:29.655Z,102275.71
2023-02-09T09:53:58.258Z,102272.11
2023-02-09T09:56:27.279Z,102271.33
2023-02-09T09:58:55.398Z,102269.48
2023-02-09T10:01:23.658Z,102267.96
2023-02-09T10:03:52.001Z,102268.63
2023-02-09T10:06:21.926Z,102266.02
2023-02-09T10:09:10.199Z,102259.98
2023-02-09T10:11:42.885Z,102258.19
2023-02-09T10:14:11.562Z,102257.19
2023-02-09T10:16:40.041Z,102258.73
2023-02-09T10:19:21.395Z,102256.23
2023-02-09T10:21:49.762Z,102247.35
2023-02-09T10:24:24.186Z,102244.82
2023-02-09T10:27:14.879Z,102243.77
2023-02-09T10:29:44.189Z,102246.09
2023-02-09T10:32:39.978Z,102247.45
2023-02-09T10:35:35.967Z,102249.33
2023-02-09T10:38:04.256Z,102247.34
2023-02-09T10:40:33.833Z,102243.14
2023-02-09T10:43:03.920Z,102243.11
2023-02-09T10:45:40.001Z,102241.96
2023-02-09T10:48:15.377Z,102243.77
2023-02-09T10:51:01.220Z,102236.05
2023-02-09T10:53:40.194Z,102241.96
2023-02-09T10:56:22.475Z,102237.02
2023-02-09T10:59:14.855Z,102228.59
2023-02-09T11:01:43.821Z,102223.36
2023-02-09T11:04:20.548Z,102220.07
2023-02-09T11:06:55.688Z,102214.84
2023-02-09T11:09:34.726Z,102214.20
2023-02-09T11:12:03.289Z,102212.14
2023-02-09T11:14:34.539Z,102213.06
2023-02-09T11:17:14.532Z,102212.22
2023-02-09T11:20:13.779Z,102205.88
2023-02-09T11:23:10.271Z,102207.80
2023-02-09T11:25:46.987Z,102201.64
2023-02-09T11:28:30.639Z,102198.16
2023-02-09T11:31:08.208Z,102197.14
2023-02-09T11:33:51.099Z,102197.52
2023-02-09T11:36:41.418Z,102194.73
2023-02-09T11:39:17.457Z,102196.66
2023-02-09T11:42:25.782Z,102188.60
2023-02-09T11:44:57.191Z,102183.16
2023-02-09T11:47:32.937Z,102182.99
2023-02-09T11:50:02.176Z,102178.08
2023-02-09T11:52:37.445Z,102175.80
2023-02-09T11:55:28.798Z,102174.40
2023-02-09T11:58:12.735Z,102177.56
2023-02-09T12:00:53.442Z,102180.37
2023-02-09T12:03:26.177Z,102179.50
2023-02-09T12:05:54.554Z,102177.56
2023-02-09T12:08:49.111Z,102173.36
2023-02-09T12:11:48.420Z,102171.08
2023-02-09T12:14:23.407Z,102168.10
2023-02-09T12:16:58.581Z,102165.47
2023-02-09T12:19:37.214Z,102164.77
2023-02-09T12:22:34.194Z,102162.66
2023-02-09T12:25:05.693Z,102158.63
2023-02-09T12:27:38.984Z,102163.36
2023-02-09T12:30:41.192Z,102161.62
2023-02-09T12:33:25.208Z,102156.70
2023-02-09T12:36:09.368Z,102155.83
2023-02-09T12:38:57.056Z,102156.54
2023-02-09T12:41:41.012Z,102154.80
2023-02-09T12:44:10.095Z,102152.33
2023-02-09T12:46:44.102Z,102150.58
2023-02-09T12:49:12.597Z,102151.80
2023-02-09T12:51:46.724Z,102152.33
2023-02-09T12:54:40.972Z,102150.41
2023-02-09T12:57:14.998Z,102147.06
2023-02-09T12:59:52.680Z,102140.05
2023-02-09T13:02:39.857Z,102140.05
2023-02-09T13:05:17.084Z,102143.19
2023-02-09T13:07:53.165Z,102142.48
2023-02-09T13:10:26.064Z,102140.73
2023-02-09T13:13:10.435Z,102138.98
2023-02-09T13:15:54.830Z,102135.13
2023-02-09T13:18:41.837Z,102133.71
2023-02-09T13:21:32.837Z,102130.39
2023-02-09T13:24:11.859Z,102134.23
2023-02-09T13:26:57.436Z,102134.05
2023-02-09T13:29:26.446Z,102129.14
2023-02-09T13:31:59.563Z,102125.30
2023-02-09T13:34:53.087Z,102128.27
2023-02-09T13:37:26.378Z,102128.95
2023-02-09T13:40:01.297Z,102131.02
2023-02-09T13:42:31.356Z,102135.04
2023-02-09T13:44:59.647Z,102135.56
2023-02-09T13:47:27.994Z,102138.70
2023-02-09T13:50:01.605Z,102140.77
2023-02-09T13:52:36.893Z,102138.48
2023-02-09T13:55:19.167Z,102141.77
2023-02-09T13:58:02.263Z,102142.98
2023-02-09T14:00:50.009Z,102144.35
2023-02-09T14:03:20.001Z,102145.05
2023-02-09T14:05:53.703Z,102142.24
2023-02-09T14:08:22.447Z,102143.27
2023-02-09T14:11:03.274Z,102141.69
2023-02-09T14:13:46.494Z,102140.77
2023-02-09T14:16:15.853Z,102142.11
2023-02-09T14:18:48.270Z,102137.20
2023-02-09T14:21:24.082Z,102131.60
2023-02-09T14:23:58.534Z,102130.36
2023-02-09T14:26:42.372Z,102132.27
2023-02-09T14:29:45.850Z,102133.66
2023-02-09T14:32:36.030Z,102130.52
2023-02-09T14:35:30.909Z,102130.13
2023-02-09T14:38:01.385Z,102129.95
2023-02-09T14:40:34.771Z,102128.71
2023-02-09T14:43:27.447Z,102131.30
2023-02-09T14:46:00.310Z,102132.15
2023-02-09T14:48:29.577Z,102134.06
2023-02-09T14:50:59.865Z,102137.00
2023-02-09T14:53:31.668Z,102132.64
2023-02-09T14:56:00.557Z,102136.30
2023-02-09T14:58:30.168Z,102132.59
2023-02-09T15:01:00.522Z,102131.70
2023-02-09T15:03:29.117Z,102132.39
2023-02-09T15:06:06.387Z,102138.10
2023-02-09T15:08:36.194Z,102138.92
2023-02-09T15:11:27.563Z,102138.89
2023-02-09T15:13:58.122Z,102138.00
2023-02-09T15:16:26.399Z,102137.11
2023-02-09T15:18:54.658Z,102140.41
2023-02-09T15:21:22.982Z,102138.48
2023-02-09T15:23:51.289Z,102136.35
2023-02-09T15:26:22.819Z,102140.53
2023-02-09T15:28:50.930Z,102135.96
2023-02-09T15:31:19.345Z,102135.77
2023-02-09T15:33:47.713Z,102133.16
2023-02-09T15:36:18.605Z,102135.63
2023-02-09T15:38:47.129Z,102141.06
2023-02-09T15:41:36.081Z,102137.77
2023-02-09T15:44:29.775Z,102136.22
2023-02-09T15:47:16.900Z,102138.81
2023-02-09T15:49:45.078Z,102136.35
2023-02-09T15:52:14.521Z,102134.90
2023-02-09T15:54:42.791Z,102132.05
2023-02-09T15:57:14.222Z,102134.27
2023-02-09T15:59:42.801Z,102134.55
2023-02-09T16:02:14.747Z,102130.98
2023-02-09T16:04:43.256Z,102125.66
2023-02-09T16:07:24.612Z,102123.69
2023-02-09T16:09:52.746Z,102119.65
2023-02-09T16:12:21.551Z,102125.69
2023-02-09T16:14:50.695Z,102125.55
2023-02-09T16:17:21.443Z,102125.59
2023-02-09T16:19:49.567Z,102121.97
2023-02-09T16:22:22.717Z,102122.67
2023-02-09T16:24:52.031Z,102116.90
2023-02-09T16:27:24.732Z,102117.27
2023-02-09T16:29:52.863Z,102113.94
2023-02-09T16:32:22.693Z,102116.71
2023-02-09T16:34:51.282Z,102118.77
2023-02-09T16:37:29.336Z,102120.16
2023-02-09T16:39:58.418Z,102122.77
2023-02-09T16:42:26.872Z,102125.23
2023-02-09T16:44:56.881Z,102127.84
2023-02-09T16:47:26.811Z,102130.82
2023-02-09T16:50:05.984Z,102132.60
2023-02-09T16:52:34.221Z,102137.23
2023-02-09T16:55:05.690Z,102137.27
2023-02-09T16:57:34.369Z,102136.98
2023-02-09T17:00:02.869Z,102134.24
2023-02-09T17:02:40.137Z,102135.16
2023-02-09T17:05:32.089Z,102128.58
2023-02-09T17:08:03.765Z,102126.72
2023-02-09T17:10:34.349Z,102127.80
2023-02-09T17:13:04.767Z,102128.72
2023-02-09T17:15:39.482Z,102129.27
2023-02-09T17:18:08.248Z,102131.23
2023-02-09T17:20:42.236Z,102129.70
2023-02-09T17:23:15.928Z,102125.53
2023-02-09T17:25:45.216Z,102128.87
2023-02-09T17:28:14.721Z,102127.61
2023-02-09T17:30:43.082Z,102123.19
2023-02-09T17:33:15.946Z,102123.34
2023-02-09T17:36:17.729Z,102123.11
2023-02-09T17:38:34.662Z,102125.02
2023-02-09T17:41:05.709Z,102125.17
2023-02-09T17:43:34.398Z,102124.99
2023-02-09T17:46:05.426Z,102123.78
2023-02-09T17:48:33.927Z,102124.45
2023-02-09T17:51:02.854Z,102124.96
2023-02-09T17:53:33.622Z,102130.77
2023-02-09T17:56:02.716Z,102128.20
2023-02-09T17:58:31.545Z,102125.45
2023-02-09T18:00:59.976Z,102124.41
2023-02-09T18:03:28.625Z,102122.52
2023-02-09T18:05:58.801Z,102124.79
2023-02-09T18:08:27.585Z,102121.62
2023-02-09T18:10:58.833Z,102126.16
2023-02-09T18:13:27.472Z,102126.50
2023-02-09T18:15:56.612Z,102126.63
2023-02-09T18:18:24.841Z,102125.61
2023-02-09T18:20:53.145Z,102126.67
2023-02-09T18:23:23.160Z,102125.64
2023-02-09T18:25:51.384Z,102124.79
2023-02-09T18:28:19.853Z,102123.26
2023-02-09T18:30:48.712Z,102127.48
2023-02-09T18:33:17.512Z,102119.66
2023-02-09T18:35:46.264Z,102124.75
2023-02-09T18:38:15.357Z,102122.13
2023-02-09T18:40:43.692Z,102124.05
2023-02-09T18:43:14.754Z,102119.83
2023-02-09T18:45:43.103Z,102121.73
2023-02-09T18:48:11.999Z,102121.95
